createdAt,value
2023-02-18T00:00:39.893Z,1.00
2023-02-18T00:01:42.614Z,1.25
2023-02-18T00:02:46.354Z,1.40
2023-02-18T00:03:49.317Z,1.42
2023-02-18T00:04:54.259Z,1.33
2023-02-18T00:05:57.956Z,1.00
2023-02-18T00:07:00.244Z,1.50
2023-02-18T00:08:02.811Z,1.17
2023-02-18T00:09:06.857Z,1.00
2023-02-18T00:10:13.537Z,1.00
2023-02-18T00:11:17.460Z,1.45
2023-02-18T00:12:19.790Z,1.13
2023-02-18T00:13:23.388Z,1.30
2023-02-18T00:14:25.621Z,1.42
2023-02-18T00:15:28.076Z,1.40
2023-02-18T00:16:31.557Z,1.27
2023-02-18T00:17:33.729Z,1.30
2023-02-18T00:18:38.252Z,1.77
2023-02-18T00:19:41.613Z,1.33
2023-02-18T00:20:43.844Z,1.38
2023-02-18T00:21:47.441Z,1.27
2023-02-18T00:22:49.598Z,1.30
2023-02-18T00:23:51.877Z,1.00
2023-02-18T00:24:54.354Z,1.25
2023-02-18T00:26:05.905Z,1.20
2023-02-18T00:27:08.966Z,1.40
2023-02-18T00:28:11.229Z,1.50
2023-02-18T00:29:13.694Z,1.45
2023-02-18T00:30:17.347Z,1.85
2023-02-18T00:31:25.892Z,1.77
2023-02-18T00:32:28.496Z,1.48
2023-02-18T00:33:32.003Z,1.80
2023-02-18T00:34:34.843Z,1.40
2023-02-18T00:35:39.143Z,1.67
2023-02-18T00:36:42.271Z,1.80
2023-02-18T00:37:44.545Z,1.20
2023-02-18T00:38:50.780Z,1.55
2023-02-18T00:39:53.259Z,1.40
2023-02-18T00:40:55.548Z,1.90
2023-02-18T00:41:58.056Z,1.70
2023-02-18T00:43:01.533Z,1.80
2023-02-18T00:44:04.677Z,1.30
2023-02-18T00:45:07.398Z,1.63
2023-02-18T00:46:10.434Z,1.40
2023-02-18T00:47:13.330Z,1.48
2023-02-18T00:48:15.480Z,2.00
2023-02-18T00:49:17.807Z,1.77
2023-02-18T00:50:20.370Z,1.60
2023-02-18T00:51:25.251Z,1.90
2023-02-18T00:52:27.914Z,1.50
2023-02-18T00:53:30.205Z,1.70
2023-02-18T00:54:32.476Z,1.95
2023-02-18T00:55:40.214Z,1.70
2023-02-18T00:56:42.527Z,1.33
2023-02-18T00:57:45.170Z,1.48
2023-02-18T00:58:47.463Z,1.27
2023-02-18T00:59:49.741Z,1.90
2023-02-18T01:00:52.387Z,1.45
2023-02-18T01:01:54.633Z,1.55
2023-02-18T01:02:57.249Z,1.45
2023-02-18T01:03:59.558Z,1.50
2023-02-18T01:05:02.132Z,1.73
2023-02-18T01:06:06.347Z,1.60
2023-02-18T01:07:10.329Z,1.40
2023-02-18T01:08:13.254Z,1.98
2023-02-18T01:09:15.572Z,1.13
2023-02-18T01:10:19.728Z,1.40
2023-02-18T01:11:21.983Z,1.50
2023-02-18T01:12:24.575Z,1.92
2023-02-18T01:13:27.090Z,1.40
2023-02-18T01:14:29.477Z,1.45
2023-02-18T01:15:32.013Z,1.27
2023-02-18T01:16:34.250Z,2.03
2023-02-18T01:17:36.875Z,2.08
2023-02-18T01:18:40.928Z,1.42
2023-02-18T01:19:43.155Z,1.70
2023-02-18T01:20:47.279Z,1.77
2023-02-18T01:21:50.296Z,1.38
2023-02-18T01:22:52.953Z,1.65
2023-02-18T01:23:58.217Z,1.40
2023-02-18T01:25:00.490Z,1.70
2023-02-18T01:26:02.870Z,1.30
2023-02-18T01:27:05.538Z,1.02
2023-02-18T01:28:08.477Z,1.25
2023-02-18T01:29:10.732Z,1.63
2023-02-18T01:30:18.986Z,1.80
2023-02-18T01:31:21.357Z,1.63
2023-02-18T01:32:23.865Z,1.65
2023-02-18T01:33:26.287Z,1.30
2023-02-18T01:34:28.507Z,1.60
2023-02-18T01:35:35.027Z,1.33
2023-02-18T01:36:37.217Z,1.40
2023-02-18T01:37:39.633Z,1.20
2023-02-18T01:38:42.400Z,2.38
2023-02-18T01:39:44.903Z,1.50
2023-02-18T01:40:52.944Z,1.55
2023-02-18T01:41:56.321Z,2.38
2023-02-18T01:42:58.540Z,1.67
2023-02-18T01:44:26.875Z,1.65
2023-02-18T01:45:35.549Z,1.92
2023-02-18T01:46:37.961Z,1.35
2023-02-18T01:47:40.724Z,1.35
2023-02-18T01:48:55.235Z,1.23
2023-02-18T01:49:57.459Z,1.33
2023-02-18T01:51:19.565Z,1.52
2023-02-18T01:52:26.276Z,1.73
2023-02-18T01:53:48.166Z,1.10
2023-02-18T01:54:53.593Z,1.35
2023-02-18T01:55:55.816Z,1.40
2023-02-18T01:57:05.010Z,1.27
2023-02-18T01:58:07.501Z,1.52
2023-02-18T01:59:14.991Z,1.83
2023-02-18T02:00:21.862Z,1.40
2023-02-18T02:01:26.543Z,1.88
2023-02-18T02:02:35.428Z,1.30
2023-02-18T02:03:37.833Z,1.23
2023-02-18T02:04:41.500Z,1.67
2023-02-18T02:05:44.889Z,2.35
2023-02-18T02:06:51.220Z,1.60
2023-02-18T02:07:55.017Z,1.55
2023-02-18T02:08:59.819Z,1.40
2023-02-18T02:10:02.577Z,1.38
2023-02-18T02:11:25.091Z,1.48
2023-02-18T02:12:33.163Z,1.38
2023-02-18T02:13:52.365Z,1.30
2023-02-18T02:15:03.889Z,1.40
2023-02-18T02:16:12.482Z,1.80
2023-02-18T02:17:28.553Z,2.05
2023-02-18T02:18:43.631Z,1.27
2023-02-18T02:19:51.480Z,1.65
2023-02-18T02:21:25.369Z,1.80
2023-02-18T02:23:08.646Z,1.50
2023-02-18T02:24:35.859Z,1.38
2023-02-18T02:26:16.100Z,1.20
2023-02-18T02:27:27.317Z,1.38
2023-02-18T02:28:57.072Z,1.25
2023-02-18T02:29:59.238Z,2.38
2023-02-18T02:31:04.347Z,1.30
2023-02-18T02:32:41.945Z,1.33
2023-02-18T02:34:14.410Z,2.03
2023-02-18T02:35:25.075Z,1.80
2023-02-18T02:36:38.589Z,1.70
2023-02-18T02:38:00.532Z,1.25
2023-02-18T02:39:23.022Z,1.40
2023-02-18T02:40:40.507Z,1.05
2023-02-18T02:42:23.370Z,1.38
2023-02-18T02:44:45.269Z,1.52
2023-02-18T02:46:01.223Z,1.45
2023-02-18T02:47:18.175Z,1.63
2023-02-18T02:48:37.099Z,1.45
2023-02-18T02:49:54.753Z,1.35
2023-02-18T02:51:02.750Z,1.40
2023-02-18T02:52:14.826Z,1.30
2023-02-18T02:53:25.374Z,1.45
2023-02-18T02:54:28.859Z,1.33
2023-02-18T02:55:32.248Z,1.98
2023-02-18T02:56:34.629Z,1.40
2023-02-18T02:57:37.000Z,1.35
2023-02-18T02:59:01.341Z,1.40
2023-02-18T03:00:11.178Z,1.48
2023-02-18T03:01:16.689Z,1.20
2023-02-18T03:02:33.106Z,1.30
2023-02-18T03:04:19.767Z,1.38
2023-02-18T03:06:04.434Z,1.50
2023-02-18T03:07:15.879Z,1.27
2023-02-18T03:08:21.083Z,1.75
2023-02-18T03:09:47.691Z,1.40
2023-02-18T03:11:13.162Z,1.58
2023-02-18T03:12:21.817Z,1.35
2023-02-18T03:13:56.623Z,2.13
2023-02-18T03:15:20.600Z,2.00
2023-02-18T03:16:46.002Z,1.90
2023-02-18T03:18:20.468Z,1.40
2023-02-18T03:19:29.414Z,1.85
2023-02-18T03:20:37.800Z,1.23
2023-02-18T03:21:51.909Z,1.10
2023-02-18T03:22:58.312Z,1.90
2023-02-18T03:24:10.814Z,1.70
2023-02-18T03:25:14.954Z,1.77
2023-02-18T03:26:19.738Z,1.55
2023-02-18T03:27:40.831Z,1.42
2023-02-18T03:28:45.752Z,1.33
2023-02-18T03:29:55.330Z,1.60
2023-02-18T03:31:02.826Z,1.80
2023-02-18T03:32:08.229Z,1.35
2023-02-18T03:33:15.998Z,1.67
2023-02-18T03:34:26.349Z,1.75
2023-02-18T03:35:29.109Z,1.48
2023-02-18T03:36:32.942Z,1.42
2023-02-18T03:37:41.882Z,1.75
2023-02-18T03:38:47.077Z,1.63
2023-02-18T03:39:55.390Z,1.73
2023-02-18T03:40:58.297Z,1.60
2023-02-18T03:42:00.848Z,1.95
2023-02-18T03:43:03.259Z,1.67
2023-02-18T03:44:10.354Z,1.55
2023-02-18T03:45:13.387Z,1.25
2023-02-18T03:46:17.636Z,1.75
2023-02-18T03:47:20.122Z,1.58
2023-02-18T03:48:23.629Z,1.52
2023-02-18T03:49:27.790Z,1.08
2023-02-18T03:50:29.968Z,1.60
2023-02-18T03:51:32.743Z,1.30
2023-02-18T03:52:36.676Z,1.70
2023-02-18T03:53:38.963Z,1.45
2023-02-18T03:54:41.445Z,1.10
2023-02-18T03:55:44.114Z,1.20
2023-02-18T03:56:46.990Z,1.02
2023-02-18T03:57:49.495Z,1.42
2023-02-18T03:58:51.663Z,1.13
2023-02-18T03:59:54.008Z,1.17
2023-02-18T04:00:56.225Z,1.33
2023-02-18T04:01:58.814Z,1.30
2023-02-18T04:03:01.045Z,1.20
2023-02-18T04:04:03.329Z,1.08
2023-02-18T04:05:05.901Z,1.25
2023-02-18T04:06:08.849Z,1.38
2023-02-18T04:07:11.377Z,1.15
2023-02-18T04:08:13.769Z,0.98
2023-02-18T04:09:16.125Z,1.20
2023-02-18T04:10:18.532Z,1.33
2023-02-18T04:11:20.753Z,1.40
2023-02-18T04:12:24.347Z,1.05
2023-02-18T04:13:26.647Z,1.10
2023-02-18T04:14:28.830Z,0.98
2023-02-18T04:15:31.396Z,1.05
2023-02-18T04:16:33.876Z,1.15
2023-02-18T04:17:36.288Z,1.70
2023-02-18T04:18:38.497Z,1.00
2023-02-18T04:19:40.675Z,1.98
2023-02-18T04:20:43.201Z,1.38
2023-02-18T04:21:45.544Z,1.40
2023-02-18T04:22:47.897Z,1.85
2023-02-18T04:23:50.094Z,1.15
2023-02-18T04:24:52.402Z,1.67
2023-02-18T04:25:54.619Z,1.00
2023-02-18T04:26:56.992Z,1.13
2023-02-18T04:27:59.615Z,1.08
2023-02-18T04:29:01.818Z,1.10
2023-02-18T04:30:05.422Z,1.40
2023-02-18T04:31:07.945Z,1.20
2023-02-18T04:32:10.349Z,1.75
2023-02-18T04:33:12.766Z,1.35
2023-02-18T04:34:15.119Z,1.13
2023-02-18T04:35:17.305Z,1.05
2023-02-18T04:36:19.696Z,1.20
2023-02-18T04:37:22.038Z,1.10
2023-02-18T04:38:24.258Z,1.42
2023-02-18T04:39:26.652Z,0.90
2023-02-18T04:40:30.738Z,2.28
2023-02-18T04:41:32.928Z,1.65
2023-02-18T04:42:35.576Z,1.42
2023-02-18T04:43:37.763Z,0.93
2023-02-18T04:44:40.294Z,0.93
2023-02-18T04:45:42.554Z,1.00
2023-02-18T04:46:44.761Z,1.45
2023-02-18T04:47:47.325Z,1.20
2023-02-18T04:48:49.539Z,0.95
2023-02-18T04:49:51.735Z,1.10
2023-02-18T04:50:53.932Z,1.08
2023-02-18T04:51:56.102Z,1.13
2023-02-18T04:52:58.640Z,1.45
2023-02-18T04:54:00.839Z,0.80
2023-02-18T04:55:03.041Z,1.08
2023-02-18T04:56:05.607Z,1.20
2023-02-18T04:57:07.923Z,1.02
2023-02-18T04:58:10.962Z,0.90
2023-02-18T04:59:13.156Z,0.90
2023-02-18T05:00:18.273Z,1.13
2023-02-18T05:01:20.508Z,1.08
2023-02-18T05:02:22.921Z,0.80
2023-02-18T05:03:25.261Z,0.70
2023-02-18T05:04:27.581Z,1.15
2023-02-18T05:05:29.780Z,1.13
2023-02-18T05:06:32.166Z,1.08
2023-02-18T05:07:35.342Z,1.17
2023-02-18T05:08:37.757Z,1.05
2023-02-18T05:09:40.107Z,1.20
2023-02-18T05:10:42.495Z,1.17
2023-02-18T05:11:45.767Z,1.25
2023-02-18T05:12:48.130Z,1.30
2023-02-18T05:13:50.754Z,1.20
2023-02-18T05:14:52.911Z,1.30
2023-02-18T05:15:55.134Z,1.45
2023-02-18T05:16:57.522Z,1.13
2023-02-18T05:17:59.884Z,0.80
2023-02-18T05:19:02.348Z,1.52
2023-02-18T05:20:05.228Z,1.23
2023-02-18T05:21:07.792Z,1.70
2023-02-18T05:22:09.951Z,1.20
2023-02-18T05:23:12.521Z,1.23
2023-02-18T05:24:14.741Z,1.35
2023-02-18T05:25:17.149Z,1.00
2023-02-18T05:26:19.478Z,1.10
2023-02-18T05:27:21.871Z,1.38
2023-02-18T05:28:26.078Z,1.33
2023-02-18T05:29:28.290Z,1.20
2023-02-18T05:30:30.494Z,0.90
2023-02-18T05:31:33.016Z,1.05
2023-02-18T05:32:35.264Z,0.80
2023-02-18T05:33:37.629Z,1.23
2023-02-18T05:34:39.938Z,1.00
2023-02-18T05:35:42.120Z,1.20
2023-02-18T05:36:44.825Z,1.58
2023-02-18T05:37:46.986Z,0.52
2023-02-18T05:38:49.500Z,1.48
2023-02-18T05:39:51.676Z,1.30
2023-02-18T05:40:53.900Z,1.65
2023-02-18T05:41:56.064Z,1.10
2023-02-18T05:42:58.476Z,1.25
2023-02-18T05:44:28.321Z,1.75
2023-02-18T05:46:32.848Z,1.23
2023-02-18T05:47:35.072Z,1.73
2023-02-18T05:48:37.604Z,1.20
2023-02-18T05:49:41.726Z,1.27
2023-02-18T05:50:44.136Z,1.55
2023-02-18T05:51:46.312Z,1.65
2023-02-18T05:52:48.704Z,1.00
2023-02-18T05:53:51.057Z,1.33
2023-02-18T05:54:53.341Z,1.10
2023-02-18T05:55:55.719Z,1.52
2023-02-18T05:56:58.362Z,1.40
2023-02-18T05:58:00.551Z,1.30
2023-02-18T05:59:03.317Z,1.60
2023-02-18T06:00:07.688Z,1.20
2023-02-18T06:01:10.109Z,1.50
2023-02-18T06:02:12.275Z,1.00
2023-02-18T06:03:14.452Z,1.00
2023-02-18T06:04:17.019Z,1.30
2023-02-18T06:05:19.296Z,1.08
2023-02-18T06:06:21.554Z,1.55
2023-02-18T06:07:23.932Z,1.35
2023-02-18T06:08:26.230Z,1.35
2023-02-18T06:09:28.685Z,1.20
2023-02-18T06:10:30.851Z,1.65
2023-02-18T06:11:34.077Z,1.45
2023-02-18T06:12:36.232Z,1.70
2023-02-18T06:13:38.648Z,0.80
2023-02-18T06:14:42.423Z,1.58
2023-02-18T06:15:44.629Z,1.13
2023-02-18T06:16:47.022Z,1.63
2023-02-18T06:17:49.263Z,1.30
2023-02-18T06:18:51.653Z,1.15
2023-02-18T06:19:53.892Z,1.35
2023-02-18T06:20:56.082Z,1.85
2023-02-18T06:21:58.323Z,1.17
2023-02-18T06:23:00.491Z,1.25
2023-02-18T06:24:02.860Z,0.95
2023-02-18T06:25:05.396Z,1.25
2023-02-18T06:26:07.895Z,1.40
2023-02-18T06:27:10.314Z,1.48
2023-02-18T06:28:12.673Z,1.25
2023-02-18T06:29:14.822Z,1.25
2023-02-18T06:30:17.360Z,1.20
2023-02-18T06:31:19.887Z,1.17
2023-02-18T06:32:22.244Z,1.52
2023-02-18T06:33:24.517Z,1.75
2023-02-18T06:34:27.114Z,1.05
2023-02-18T06:35:29.462Z,1.40
2023-02-18T06:36:31.627Z,1.50
2023-02-18T06:37:34.139Z,1.05
2023-02-18T06:38:36.370Z,0.98
2023-02-18T06:39:39.578Z,0.93
2023-02-18T06:40:42.163Z,1.65
2023-02-18T06:41:44.325Z,1.30
2023-02-18T06:42:46.661Z,1.20
2023-02-18T06:43:48.827Z,1.00
2023-02-18T06:44:51.397Z,1.70
2023-02-18T06:45:53.587Z,1.30
2023-02-18T06:46:55.802Z,1.63
2023-02-18T06:47:58.225Z,1.20
2023-02-18T06:49:00.470Z,1.02
2023-02-18T06:50:03.276Z,1.40
2023-02-18T06:51:05.894Z,1.25
2023-02-18T06:52:08.083Z,1.33
2023-02-18T06:53:10.721Z,1.10
2023-02-18T06:54:13.118Z,1.25
2023-02-18T06:55:15.494Z,1.35
2023-02-18T06:56:17.786Z,2.00
2023-02-18T06:57:20.127Z,1.35
2023-02-18T06:58:23.349Z,1.20
2023-02-18T06:59:26.028Z,1.67
2023-02-18T07:00:28.254Z,1.23
2023-02-18T07:01:30.441Z,1.23
2023-02-18T07:02:32.680Z,1.05
2023-02-18T07:03:35.016Z,0.90
2023-02-18T07:04:37.180Z,1.27
2023-02-18T07:05:39.831Z,0.93
2023-02-18T07:06:42.254Z,1.00
2023-02-18T07:07:44.468Z,1.42
2023-02-18T07:08:46.832Z,1.05
2023-02-18T07:09:49.003Z,1.13
2023-02-18T07:10:51.355Z,1.33
2023-02-18T07:11:53.536Z,0.90
2023-02-18T07:12:55.687Z,2.17
2023-02-18T07:13:58.018Z,1.38
2023-02-18T07:15:00.429Z,0.90
2023-02-18T07:16:02.857Z,1.10
2023-02-18T07:17:05.058Z,1.63
2023-02-18T07:18:07.452Z,1.25
2023-02-18T07:19:09.629Z,1.00
2023-02-18T07:20:11.942Z,1.35
2023-02-18T07:21:14.491Z,1.13
2023-02-18T07:22:17.091Z,1.85
2023-02-18T07:23:19.247Z,1.00
2023-02-18T07:24:21.578Z,1.05
2023-02-18T07:25:24.196Z,0.90
2023-02-18T07:26:26.775Z,1.00
2023-02-18T07:27:29.034Z,0.85
2023-02-18T07:28:31.336Z,1.40
2023-02-18T07:29:33.722Z,1.23
2023-02-18T07:30:35.931Z,1.30
2023-02-18T07:31:38.951Z,1.05
2023-02-18T07:32:41.350Z,1.20
2023-02-18T07:33:43.566Z,1.02
2023-02-18T07:34:46.129Z,1.13
2023-02-18T07:35:53.954Z,0.90
2023-02-18T07:36:56.106Z,1.10
2023-02-18T07:37:58.572Z,1.58
2023-02-18T07:39:00.974Z,1.30
2023-02-18T07:40:03.520Z,1.00
2023-02-18T07:41:06.091Z,1.25
2023-02-18T07:42:08.821Z,1.25
2023-02-18T07:43:11.031Z,1.23
2023-02-18T07:44:14.223Z,1.30
2023-02-18T07:45:16.746Z,1.10
2023-02-18T07:46:19.168Z,1.15
2023-02-18T07:47:21.360Z,1.17
2023-02-18T07:48:23.709Z,1.23
2023-02-18T07:49:26.061Z,1.00
2023-02-18T07:50:28.507Z,1.30
2023-02-18T07:51:31.171Z,1.10
2023-02-18T07:52:34.712Z,0.90
2023-02-18T07:53:37.967Z,1.17
2023-02-18T07:54:40.150Z,1.48
2023-02-18T07:55:51.406Z,1.00
2023-02-18T07:56:55.167Z,0.88
2023-02-18T07:57:57.455Z,0.88
2023-02-18T07:58:59.654Z,0.65
2023-02-18T08:00:02.174Z,1.25
2023-02-18T08:01:15.715Z,1.00
2023-02-18T08:02:20.879Z,0.73
2023-02-18T08:03:28.888Z,0.70
2023-02-18T08:04:31.447Z,0.90
2023-02-18T08:05:33.857Z,1.10
2023-02-18T08:06:38.914Z,0.82
2023-02-18T08:07:41.083Z,1.05
2023-02-18T08:08:43.456Z,0.93
2023-02-18T08:09:45.609Z,0.85
2023-02-18T08:10:48.830Z,1.00
2023-02-18T08:11:51.300Z,1.02
2023-02-18T08:12:53.555Z,0.90
2023-02-18T08:13:55.914Z,0.95
2023-02-18T08:14:58.096Z,0.73
2023-02-18T08:16:00.464Z,1.65
2023-02-18T08:17:02.914Z,1.00
2023-02-18T08:18:06.139Z,1.00
2023-02-18T08:19:09.689Z,1.13
2023-02-18T08:20:12.123Z,1.23
2023-02-18T08:21:15.877Z,1.38
2023-02-18T08:22:18.225Z,0.98
2023-02-18T08:23:22.156Z,1.25
2023-02-18T08:24:24.553Z,0.95
2023-02-18T08:25:29.727Z,1.30
2023-02-18T08:26:32.172Z,0.98
2023-02-18T08:27:34.749Z,0.88
2023-02-18T08:28:37.042Z,1.10
2023-02-18T08:29:39.285Z,1.10
2023-02-18T08:30:52.668Z,1.17
2023-02-18T08:31:57.415Z,1.08
2023-02-18T08:32:59.649Z,0.95
2023-02-18T08:34:03.715Z,1.17
2023-02-18T08:35:07.720Z,1.00
2023-02-18T08:36:10.809Z,1.02
2023-02-18T08:37:13.570Z,1.15
2023-02-18T08:38:15.813Z,1.42
2023-02-18T08:39:18.044Z,2.13
2023-02-18T08:40:20.265Z,1.10
2023-02-18T08:41:22.736Z,1.33
2023-02-18T08:42:25.087Z,0.82
2023-02-18T08:43:27.239Z,1.10
2023-02-18T08:44:29.756Z,1.27
2023-02-18T08:45:31.907Z,1.20
2023-02-18T08:46:36.605Z,0.85
2023-02-18T08:48:16.783Z,1.15
2023-02-18T08:49:01.910Z,1.40
2023-02-18T08:50:06.066Z,1.65
2023-02-18T08:51:13.489Z,1.10
2023-02-18T08:52:19.866Z,1.48
2023-02-18T08:53:22.410Z,1.05
2023-02-18T08:54:27.679Z,1.45
2023-02-18T08:55:31.141Z,1.35
2023-02-18T08:56:33.573Z,1.40
2023-02-18T08:57:35.751Z,1.45
2023-02-18T08:58:38.426Z,1.30
2023-02-18T08:59:40.620Z,1.73
2023-02-18T09:00:44.861Z,1.52
2023-02-18T09:01:47.346Z,1.70
2023-02-18T09:02:49.568Z,1.20
2023-02-18T09:03:52.956Z,1.17
2023-02-18T09:04:55.169Z,1.67
2023-02-18T09:06:00.114Z,1.35
2023-02-18T09:07:03.352Z,1.80
2023-02-18T09:08:06.263Z,2.30
2023-02-18T09:09:09.030Z,1.98
2023-02-18T09:10:11.545Z,2.85
2023-02-18T09:11:14.222Z,2.03
2023-02-18T09:12:16.398Z,1.73
2023-02-18T09:13:19.840Z,2.00
2023-02-18T09:14:22.251Z,1.50
2023-02-18T09:15:27.786Z,2.10
2023-02-18T09:16:30.266Z,1.92
2023-02-18T09:17:32.504Z,2.35
2023-02-18T09:18:36.141Z,2.40
2023-02-18T09:19:38.452Z,2.20
2023-02-18T09:20:40.685Z,1.52
2023-02-18T09:21:43.229Z,1.90
2023-02-18T09:22:48.166Z,3.03
2023-02-18T09:23:51.179Z,1.70
2023-02-18T09:24:53.356Z,2.03
2023-02-18T09:25:55.764Z,1.63
2023-02-18T09:27:00.713Z,2.30
2023-02-18T09:28:03.128Z,2.20
2023-02-18T09:29:05.549Z,1.90
2023-02-18T09:30:08.181Z,2.58
2023-02-18T09:31:16.316Z,2.28
2023-02-18T09:32:32.508Z,2.38
2023-02-18T09:33:43.270Z,2.15
2023-02-18T09:34:46.437Z,1.92
2023-02-18T09:35:48.593Z,1.70
2023-02-18T09:36:50.961Z,3.45
2023-02-18T09:37:53.118Z,1.98
2023-02-18T09:38:56.136Z,2.78
2023-02-18T09:39:59.993Z,2.33
2023-02-18T09:41:07.028Z,1.75
2023-02-18T09:42:15.218Z,2.17
2023-02-18T09:43:25.325Z,1.80
2023-02-18T09:44:40.723Z,2.15
2023-02-18T09:45:43.047Z,1.70
2023-02-18T09:47:06.514Z,2.50
2023-02-18T09:48:10.061Z,1.40
2023-02-18T09:49:18.933Z,2.60
2023-02-18T09:50:30.290Z,2.55
2023-02-18T09:51:32.996Z,2.00
2023-02-18T09:52:38.323Z,2.25
2023-02-18T09:53:42.371Z,2.88
2023-02-18T09:54:44.829Z,2.95
2023-02-18T09:55:48.637Z,2.30
2023-02-18T09:56:53.222Z,2.65
2023-02-18T09:58:05.918Z,2.33
2023-02-18T09:59:14.966Z,2.30
2023-02-18T10:00:28.094Z,2.65
2023-02-18T10:01:37.730Z,2.85
2023-02-18T10:02:45.428Z,2.92
2023-02-18T10:03:48.055Z,2.08
2023-02-18T10:04:52.539Z,2.47
2023-02-18T10:06:15.996Z,2.63
2023-02-18T10:07:38.848Z,1.95
2023-02-18T10:08:45.040Z,2.03
2023-02-18T10:09:50.776Z,3.45
2023-02-18T10:10:53.432Z,4.20
2023-02-18T10:12:01.722Z,2.90
2023-02-18T10:13:04.877Z,2.30
2023-02-18T10:14:12.688Z,2.88
2023-02-18T10:15:23.861Z,3.33
2023-02-18T10:16:26.129Z,2.00
2023-02-18T10:17:32.362Z,2.50
2023-02-18T10:18:41.596Z,2.78
2023-02-18T10:19:49.932Z,2.20
2023-02-18T10:20:57.517Z,2.40
2023-02-18T10:22:02.361Z,2.90
2023-02-18T10:23:06.228Z,2.42
2023-02-18T10:24:50.148Z,2.10
2023-02-18T10:25:52.718Z,2.25
2023-02-18T10:26:55.912Z,2.40
2023-02-18T10:27:59.762Z,2.70
2023-02-18T10:29:02.599Z,2.78
2023-02-18T10:30:23.952Z,2.53
2023-02-18T10:31:33.371Z,2.95
2023-02-18T10:32:43.078Z,2.53
2023-02-18T10:34:00.750Z,2.88
2023-02-18T10:35:18.047Z,2.78
2023-02-18T10:36:33.472Z,3.35
2023-02-18T10:37:56.815Z,2.97
2023-02-18T10:39:07.692Z,3.10
2023-02-18T10:40:09.861Z,2.72
2023-02-18T10:41:21.396Z,2.65
2023-02-18T10:42:34.086Z,2.25
2023-02-18T10:44:18.927Z,2.55
2023-02-18T10:45:36.200Z,3.00
2023-02-18T10:46:50.729Z,2.72
2023-02-18T10:48:22.615Z,2.50
2023-02-18T10:49:51.981Z,2.35
2023-02-18T10:51:04.855Z,2.28
2023-02-18T10:52:14.588Z,2.60
2023-02-18T10:53:35.175Z,3.55
2023-02-18T10:55:01.245Z,3.10
2023-02-18T10:56:05.763Z,2.35
2023-02-18T10:57:18.430Z,2.50
2023-02-18T10:58:46.914Z,2.65
2023-02-18T10:59:57.280Z,2.53
2023-02-18T11:01:05.714Z,3.00
2023-02-18T11:02:18.555Z,2.90
2023-02-18T11:03:24.585Z,3.83
2023-02-18T11:04:36.503Z,3.58
2023-02-18T11:05:38.959Z,3.35
2023-02-18T11:06:48.207Z,2.90
2023-02-18T11:07:54.084Z,2.65
2023-02-18T11:08:57.674Z,2.03
2023-02-18T11:10:17.141Z,2.28
2023-02-18T11:11:30.924Z,2.95
2023-02-18T11:12:44.769Z,1.83
2023-02-18T11:13:58.874Z,2.15
2023-02-18T11:15:10.075Z,2.10
2023-02-18T11:16:12.772Z,2.30
2023-02-18T11:17:31.242Z,2.08
2023-02-18T11:18:42.329Z,2.33
2023-02-18T11:19:52.808Z,1.83
2023-02-18T11:21:03.832Z,2.40
2023-02-18T11:22:19.114Z,1.92
2023-02-18T11:23:22.177Z,2.08
2023-02-18T11:24:24.951Z,1.80
2023-02-18T11:25:33.469Z,2.33
2023-02-18T11:26:37.051Z,3.10
2023-02-18T11:27:46.380Z,2.53
2023-02-18T11:28:51.532Z,2.10
2023-02-18T11:30:15.562Z,1.77
2023-02-18T11:31:23.565Z,1.73
2023-02-18T11:32:29.027Z,1.77
2023-02-18T11:33:48.036Z,1.80
2023-02-18T11:34:50.603Z,3.67
2023-02-18T11:35:56.514Z,4.03
2023-02-18T11:37:19.709Z,2.53
2023-02-18T11:38:46.268Z,2.67
2023-02-18T11:39:51.746Z,2.50
2023-02-18T11:40:56.448Z,2.20
2023-02-18T11:42:06.058Z,1.85
2023-02-18T11:43:19.779Z,2.03
2023-02-18T11:44:33.048Z,1.90
2023-02-18T11:45:35.909Z,2.13
2023-02-18T11:46:38.233Z,2.83
2023-02-18T11:47:40.768Z,3.47
2023-02-18T11:48:43.638Z,2.65
2023-02-18T11:50:01.918Z,2.42
2023-02-18T11:51:07.147Z,3.63
2023-02-18T11:52:19.142Z,3.97
2023-02-18T11:53:30.778Z,6.05
2023-02-18T11:54:35.700Z,3.50
2023-02-18T11:55:38.283Z,3.00
2023-02-18T11:56:40.747Z,3.40
2023-02-18T11:58:05.193Z,4.40
2023-02-18T11:59:10.821Z,4.53
2023-02-18T12:00:23.083Z,5.60
2023-02-18T12:01:43.681Z,4.80
2023-02-18T12:02:48.137Z,3.85
2023-02-18T12:03:57.466Z,5.72
2023-02-18T12:05:16.945Z,5.28
2023-02-18T12:06:30.944Z,3.40
2023-02-18T12:07:49.552Z,3.55
2023-02-18T12:08:56.732Z,3.83
2023-02-18T12:10:04.895Z,4.07
2023-02-18T12:11:14.611Z,5.45
2023-02-18T12:12:24.730Z,9.10
2023-02-18T12:13:33.660Z,9.05
2023-02-18T12:14:36.600Z,8.93
2023-02-18T12:15:58.014Z,9.82
2023-02-18T12:17:31.298Z,5.22
2023-02-18T12:19:29.562Z,4.22
2023-02-18T12:20:35.137Z,4.32
2023-02-18T12:21:52.498Z,4.95
2023-02-18T12:23:20.674Z,5.10
2023-02-18T12:24:44.180Z,4.22
2023-02-18T12:25:52.217Z,4.13
2023-02-18T12:27:04.119Z,4.00
2023-02-18T12:28:27.813Z,3.80
2023-02-18T12:29:49.882Z,3.95
2023-02-18T12:31:07.370Z,3.90
2023-02-18T12:32:31.070Z,4.10
2023-02-18T12:33:55.951Z,3.80
2023-02-18T12:35:33.570Z,4.20
2023-02-18T12:36:56.902Z,3.80
2023-02-18T12:38:07.299Z,3.70
2023-02-18T12:39:15.513Z,4.32
2023-02-18T12:40:18.169Z,3.90
2023-02-18T12:42:04.160Z,3.10
2023-02-18T12:43:34.260Z,2.80
2023-02-18T12:45:27.134Z,2.95
2023-02-18T12:47:00.444Z,2.90
2023-02-18T12:48:29.946Z,2.72
2023-02-18T12:50:18.298Z,2.40
2023-02-18T12:52:06.616Z,2.20
2023-02-18T12:53:30.775Z,2.40
2023-02-18T12:55:02.645Z,2.08
2023-02-18T12:56:36.376Z,2.33
2023-02-18T12:57:51.316Z,2.30
2023-02-18T12:59:11.690Z,2.13
2023-02-18T13:00:39.982Z,2.27
2023-02-18T13:02:14.783Z,1.95
2023-02-18T13:03:46.923Z,1.90
2023-02-18T13:05:27.697Z,1.50
2023-02-18T13:06:45.354Z,1.80
2023-02-18T13:08:14.629Z,1.30
2023-02-18T13:09:19.741Z,1.42
2023-02-18T13:10:28.018Z,1.85
2023-02-18T13:11:54.985Z,1.58
2023-02-18T13:13:19.602Z,3.40
2023-02-18T13:14:30.848Z,1.15
2023-02-18T13:15:48.297Z,0.90
2023-02-18T13:16:55.321Z,0.80
2023-02-18T13:18:00.097Z,1.10
2023-02-18T13:19:11.345Z,0.70
2023-02-18T13:20:38.875Z,0.93
2023-02-18T13:21:43.154Z,0.75
2023-02-18T13:22:46.230Z,0.90
2023-02-18T13:23:51.211Z,0.88
2023-02-18T13:24:56.718Z,0.60
2023-02-18T13:26:03.540Z,0.50
2023-02-18T13:27:17.463Z,0.50
2023-02-18T13:28:49.345Z,0.50
2023-02-18T13:30:11.342Z,0.50
2023-02-18T13:31:47.422Z,0.40
2023-02-18T13:33:08.573Z,0.45
2023-02-18T13:35:29.881Z,0.60
2023-02-18T13:36:43.718Z,0.40
2023-02-18T13:38:19.863Z,0.40
2023-02-18T13:39:24.326Z,0.60
2023-02-18T13:40:30.660Z,0.40
2023-02-18T13:41:39.449Z,0.55
2023-02-18T13:42:41.694Z,0.50
2023-02-18T13:43:45.663Z,0.40
2023-02-18T13:45:27.864Z,0.50
2023-02-18T13:46:30.190Z,0.50
2023-02-18T13:47:40.086Z,0.45
2023-02-18T13:48:47.996Z,0.30
2023-02-18T13:49:52.393Z,0.55
2023-02-18T13:51:00.609Z,0.55
2023-02-18T13:52:04.060Z,0.65
2023-02-18T13:53:09.329Z,0.70
2023-02-18T13:54:17.242Z,0.52
2023-02-18T13:55:23.908Z,0.50
2023-02-18T13:56:33.025Z,0.40
2023-02-18T13:57:38.955Z,0.70
2023-02-18T13:58:43.531Z,0.52
2023-02-18T13:59:52.634Z,0.55
2023-02-18T14:01:22.238Z,0.60
2023-02-18T14:02:27.373Z,0.75
2023-02-18T14:03:38.286Z,0.70
2023-02-18T14:05:43.479Z,0.50
2023-02-18T14:07:24.485Z,0.60
2023-02-18T14:08:35.975Z,0.68
2023-02-18T14:09:43.153Z,0.85
2023-02-18T14:11:14.361Z,0.70
2023-02-18T14:13:24.132Z,0.40
2023-02-18T14:14:26.751Z,0.63
2023-02-18T14:15:29.012Z,0.40
2023-02-18T14:17:09.747Z,0.68
2023-02-18T14:18:14.917Z,0.50
2023-02-18T14:19:30.394Z,1.05
2023-02-18T14:20:38.768Z,0.75
2023-02-18T14:21:43.302Z,0.60
2023-02-18T14:22:50.635Z,0.70
2023-02-18T14:24:01.964Z,0.73
2023-02-18T14:25:11.310Z,0.60
2023-02-18T14:26:14.180Z,0.60
2023-02-18T14:27:17.133Z,0.60
2023-02-18T14:28:34.675Z,0.70
2023-02-18T14:29:55.739Z,0.90
2023-02-18T14:30:58.333Z,0.60
2023-02-18T14:32:04.975Z,0.60
2023-02-18T14:33:15.829Z,0.70
2023-02-18T14:34:24.246Z,0.63
2023-02-18T14:35:37.393Z,0.63
2023-02-18T14:36:42.104Z,0.60
2023-02-18T14:38:02.683Z,0.70
2023-02-18T14:39:27.629Z,0.60
2023-02-18T14:40:35.708Z,0.63
2023-02-18T14:41:40.738Z,0.70
2023-02-18T14:43:00.583Z,0.70
2023-02-18T14:44:27.848Z,0.60
2023-02-18T14:45:38.774Z,0.47
2023-02-18T14:48:41.537Z,0.50
2023-02-18T14:49:51.926Z,0.70
2023-02-18T14:50:56.559Z,0.52
2023-02-18T14:51:59.242Z,0.70
2023-02-18T14:53:08.518Z,0.95
2023-02-18T14:54:15.748Z,0.70
2023-02-18T14:55:25.506Z,0.77
2023-02-18T14:56:28.075Z,0.60
2023-02-18T14:57:45.600Z,0.47
2023-02-18T14:58:52.355Z,0.80
2023-02-18T14:59:59.691Z,0.73
2023-02-18T15:01:18.699Z,0.57
2023-02-18T15:02:27.362Z,0.80
2023-02-18T15:03:29.723Z,0.63
2023-02-18T15:04:32.092Z,0.52
2023-02-18T15:05:38.225Z,0.80
2023-02-18T15:06:40.548Z,0.60
2023-02-18T15:07:54.508Z,0.95
2023-02-18T15:08:57.244Z,0.60